createdAt,value
2023-05-20T00:02:27.136Z,4.47
2023-05-20T00:04:55.960Z,6.13
2023-05-20T00:07:24.340Z,5.37
2023-05-20T00:09:52.229Z,4.50
2023-05-20T00:12:20.323Z,4.37
2023-05-20T00:14:48.302Z,4.10
2023-05-20T00:17:16.317Z,4.30
2023-05-20T00:19:45.773Z,7.00
2023-05-20T00:22:13.520Z,3.83
2023-05-20T00:24:41.248Z,4.43
2023-05-20T00:27:09.002Z,5.30
2023-05-20T00:29:36.825Z,4.70
2023-05-20T00:32:05.390Z,5.40
2023-05-20T00:34:33.464Z,4.10
2023-05-20T00:37:02.973Z,4.30
2023-05-20T00:39:31.213Z,4.27
2023-05-20T00:42:00.962Z,4.50
2023-05-20T00:44:28.784Z,5.37
2023-05-20T00:46:56.774Z,4.80
2023-05-20T00:49:24.647Z,4.43
2023-05-20T00:51:52.648Z,6.30
2023-05-20T00:54:22.633Z,4.80
2023-05-20T00:56:50.674Z,4.73
2023-05-20T00:59:19.126Z,8.47
2023-05-20T01:01:47.160Z,4.37
2023-05-20T01:04:15.321Z,6.40
2023-05-20T01:06:43.392Z,5.80
2023-05-20T01:09:11.497Z,5.60
2023-05-20T01:11:44.272Z,4.70
2023-05-20T01:14:12.252Z,5.53
2023-05-20T01:16:40.190Z,4.43
2023-05-20T01:19:09.703Z,4.20
2023-05-20T01:21:37.697Z,5.20
2023-05-20T01:24:07.623Z,13.03
2023-05-20T01:26:38.454Z,14.77
2023-05-20T01:29:06.450Z,15.60
2023-05-20T01:31:36.791Z,16.37
2023-05-20T01:34:04.581Z,14.60
2023-05-20T01:36:32.522Z,11.10
2023-05-20T01:39:00.916Z,12.87
2023-05-20T01:41:30.670Z,12.70
2023-05-20T01:43:58.579Z,15.43
2023-05-20T01:46:26.553Z,13.70
2023-05-20T01:48:54.524Z,14.80
2023-05-20T01:51:22.393Z,12.80
2023-05-20T01:53:51.041Z,16.47
2023-05-20T01:56:19.049Z,14.23
2023-05-20T01:58:48.905Z,15.00
2023-05-20T02:01:16.935Z,15.00
2023-05-20T02:03:45.269Z,14.23
2023-05-20T02:06:13.372Z,14.87
2023-05-20T02:08:41.619Z,14.50
2023-05-20T02:11:09.676Z,13.43
2023-05-20T02:13:38.016Z,16.00
2023-05-20T02:16:07.881Z,13.53
2023-05-20T02:18:36.837Z,15.77
2023-05-20T02:21:05.089Z,14.63
2023-05-20T02:23:33.536Z,14.17
2023-05-20T02:26:01.578Z,12.90
2023-05-20T02:28:29.551Z,14.93
2023-05-20T02:30:58.116Z,11.27
2023-05-20T02:33:29.053Z,13.77
2023-05-20T02:35:57.427Z,12.60
2023-05-20T02:38:25.608Z,13.47
2023-05-20T02:40:53.378Z,12.30
2023-05-20T02:43:21.686Z,12.37
2023-05-20T02:45:49.767Z,10.90
2023-05-20T02:48:18.338Z,11.43
2023-05-20T02:50:48.325Z,11.07
2023-05-20T02:53:16.703Z,10.00
2023-05-20T02:55:45.194Z,11.77
2023-05-20T02:58:13.434Z,10.70
2023-05-20T03:00:41.679Z,12.40
2023-05-20T03:03:10.232Z,12.43
2023-05-20T03:05:38.714Z,10.23
2023-05-20T03:08:10.378Z,9.40
2023-05-20T03:10:38.830Z,11.37
2023-05-20T03:13:08.780Z,10.93
2023-05-20T03:15:37.070Z,10.70
2023-05-20T03:18:05.682Z,9.10
2023-05-20T03:20:33.828Z,9.80
2023-05-20T03:23:02.592Z,9.50
2023-05-20T03:25:32.738Z,10.13
2023-05-20T03:28:00.923Z,11.20
2023-05-20T03:30:29.302Z,7.60
2023-05-20T03:32:57.789Z,8.60
2023-05-20T03:35:25.986Z,8.20
2023-05-20T03:37:54.435Z,9.17
2023-05-20T03:40:22.360Z,8.23
2023-05-20T03:42:52.429Z,7.40
2023-05-20T03:45:20.209Z,9.73
2023-05-20T03:47:48.573Z,8.00
2023-05-20T03:50:17.122Z,7.30
2023-05-20T03:52:45.072Z,6.70
2023-05-20T03:55:12.986Z,9.10
2023-05-20T03:57:40.789Z,7.73
2023-05-20T04:00:11.819Z,7.00
2023-05-20T04:02:40.383Z,7.40
2023-05-20T04:05:10.572Z,8.90
2023-05-20T04:07:38.542Z,7.40
2023-05-20T04:10:07.388Z,12.67
2023-05-20T04:12:36.822Z,6.90
2023-05-20T04:15:05.352Z,7.00
2023-05-20T04:17:37.643Z,6.50
2023-05-20T04:20:07.393Z,6.87
2023-05-20T04:22:35.347Z,6.97
2023-05-20T04:25:05.713Z,6.70
2023-05-20T04:27:34.695Z,6.73
2023-05-20T04:30:04.479Z,7.00
2023-05-20T04:32:32.440Z,5.87
2023-05-20T04:35:03.414Z,6.80
2023-05-20T04:37:32.466Z,7.03
2023-05-20T04:40:03.298Z,6.23
2023-05-20T04:42:31.247Z,5.90
2023-05-20T04:45:01.834Z,6.37
2023-05-20T04:47:30.291Z,5.30
2023-05-20T04:49:58.593Z,5.70
2023-05-20T04:52:27.819Z,7.13
2023-05-20T04:54:58.953Z,5.77
2023-05-20T04:57:27.789Z,6.00
2023-05-20T04:59:58.658Z,6.13
2023-05-20T05:02:27.084Z,5.43
2023-05-20T05:04:55.136Z,6.10
2023-05-20T05:07:23.184Z,5.57
2023-05-20T05:09:52.792Z,5.23
2023-05-20T05:12:21.448Z,5.80
2023-05-20T05:14:49.621Z,5.00
2023-05-20T05:17:17.709Z,5.37
2023-05-20T05:19:45.950Z,5.00
2023-05-20T05:22:13.753Z,6.93
2023-05-20T05:24:41.736Z,4.80
2023-05-20T05:27:11.340Z,4.80
2023-05-20T05:29:39.492Z,4.87
2023-05-20T05:32:08.084Z,4.83
2023-05-20T05:34:36.134Z,4.50
2023-05-20T05:37:04.554Z,4.80
2023-05-20T05:39:32.653Z,4.83
2023-05-20T05:42:01.224Z,4.33
2023-05-20T05:44:30.676Z,6.53
2023-05-20T05:46:59.124Z,4.77
2023-05-20T05:49:27.149Z,4.53
2023-05-20T05:51:55.345Z,4.37
2023-05-20T05:54:23.332Z,5.00
2023-05-20T05:56:52.454Z,4.57
2023-05-20T05:59:20.980Z,4.37
2023-05-20T06:01:50.420Z,4.63
2023-05-20T06:04:18.502Z,5.07
2023-05-20T06:06:46.496Z,4.67
2023-05-20T06:09:14.449Z,5.30
2023-05-20T06:11:44.453Z,5.60
2023-05-20T06:14:12.374Z,4.37
2023-05-20T06:16:40.658Z,4.57
2023-05-20T06:19:10.533Z,5.00
2023-05-20T06:21:38.665Z,4.37
2023-05-20T06:24:07.457Z,4.40
2023-05-20T06:26:35.406Z,3.47
2023-05-20T06:29:04.123Z,4.73
2023-05-20T06:31:31.940Z,4.03
2023-05-20T06:34:00.218Z,3.60
2023-05-20T06:36:30.277Z,4.03
2023-05-20T06:39:00.798Z,4.00
2023-05-20T06:41:28.763Z,4.47
2023-05-20T06:43:57.037Z,4.00
2023-05-20T06:46:25.007Z,3.87
2023-05-20T06:48:53.169Z,3.80
2023-05-20T06:51:21.328Z,3.90
2023-05-20T06:53:50.604Z,3.90
2023-05-20T06:56:18.654Z,3.77
2023-05-20T06:58:46.569Z,3.43
2023-05-20T07:01:16.024Z,6.10
2023-05-20T07:03:45.711Z,3.40
2023-05-20T07:06:13.677Z,3.63
2023-05-20T07:08:41.650Z,3.03
2023-05-20T07:11:11.035Z,4.47
2023-05-20T07:13:39.530Z,4.10
2023-05-20T07:16:08.177Z,3.53
2023-05-20T07:18:36.391Z,3.10
2023-05-20T07:21:04.908Z,3.50
2023-05-20T07:23:33.201Z,3.80
2023-05-20T07:28:51.798Z,3.73
2023-05-20T07:31:19.918Z,3.23
2023-05-20T07:33:47.941Z,3.00
2023-05-20T07:36:16.430Z,3.53
2023-05-20T07:38:53.076Z,3.00
2023-05-20T07:41:24.639Z,3.10
2023-05-20T07:43:54.086Z,3.30
2023-05-20T07:46:22.156Z,3.10
2023-05-20T07:48:50.684Z,2.87
2023-05-20T07:51:18.974Z,2.60
2023-05-20T07:53:47.434Z,2.90
2023-05-20T07:56:15.451Z,2.90
2023-05-20T07:58:43.416Z,3.63
2023-05-20T08:01:12.942Z,7.73
2023-05-20T08:03:40.979Z,3.00
2023-05-20T08:06:09.016Z,2.80
2023-05-20T08:08:36.878Z,2.73
2023-05-20T08:11:04.924Z,2.80
2023-05-20T08:13:33.237Z,2.50
2023-05-20T08:16:01.198Z,2.80
2023-05-20T08:18:30.549Z,3.03
2023-05-20T08:20:58.909Z,2.50
2023-05-20T08:23:27.469Z,1.93
2023-05-20T08:25:55.790Z,3.83
2023-05-20T08:28:23.764Z,2.10
2023-05-20T08:30:52.069Z,2.33
2023-05-20T08:33:21.800Z,7.40
2023-05-20T08:35:51.200Z,2.00
2023-05-20T08:38:19.133Z,3.47
2023-05-20T08:40:47.202Z,4.20
2023-05-20T08:43:15.526Z,2.80
2023-05-20T08:45:43.550Z,4.57
2023-05-20T08:48:12.203Z,2.27
2023-05-20T08:50:41.124Z,2.43
2023-05-20T08:53:10.716Z,2.43
2023-05-20T08:55:42.249Z,3.30
2023-05-20T08:58:10.693Z,3.43
2023-05-20T09:00:38.757Z,4.30
2023-05-20T09:03:06.746Z,1.90
2023-05-20T09:05:35.387Z,9.33
2023-05-20T09:08:08.062Z,3.93
2023-05-20T09:10:38.479Z,5.47
2023-05-20T09:13:06.744Z,9.20
2023-05-20T09:15:35.391Z,2.63
2023-05-20T09:18:03.727Z,2.03
2023-05-20T09:20:32.302Z,4.20
2023-05-20T09:23:00.806Z,1.70
2023-05-20T09:25:28.923Z,1.53
2023-05-20T09:27:58.405Z,2.27
2023-05-20T09:30:26.907Z,2.70
2023-05-20T09:32:56.004Z,3.30
2023-05-20T09:35:24.941Z,4.10
2023-05-20T09:37:54.138Z,1.53
2023-05-20T09:40:25.584Z,2.03
2023-05-20T09:42:55.091Z,1.70
2023-05-20T09:45:24.618Z,4.27
2023-05-20T09:47:53.478Z,1.90
2023-05-20T09:50:22.381Z,1.77
2023-05-20T09:52:51.402Z,2.23
2023-05-20T09:55:19.648Z,7.70
2023-05-20T09:57:47.634Z,4.60
2023-05-20T10:00:17.450Z,6.00
2023-05-20T10:02:48.010Z,12.03
2023-05-20T10:05:18.689Z,10.83
2023-05-20T10:08:13.340Z,7.37
2023-05-20T10:10:46.072Z,7.43
2023-05-20T10:13:21.523Z,3.73
2023-05-20T10:15:54.606Z,4.70
2023-05-20T10:18:31.178Z,9.73
2023-05-20T10:20:59.044Z,6.83
2023-05-20T10:23:30.320Z,10.03
2023-05-20T10:25:59.301Z,3.63
2023-05-20T10:28:31.107Z,6.90
2023-05-20T10:30:59.188Z,7.00
2023-05-20T10:33:29.464Z,9.13
2023-05-20T10:35:59.588Z,8.83
2023-05-20T10:38:27.851Z,8.17
2023-05-20T10:40:57.483Z,6.60
2023-05-20T10:43:29.391Z,7.37
2023-05-20T10:45:58.262Z,7.13
2023-05-20T10:48:28.927Z,4.73
2023-05-20T10:50:58.513Z,3.63
2023-05-20T10:53:34.158Z,4.50
2023-05-20T10:56:03.031Z,4.50
2023-05-20T10:58:37.999Z,3.23
2023-05-20T11:01:06.243Z,2.83
2023-05-20T11:03:36.258Z,2.87
2023-05-20T11:06:11.993Z,2.10
2023-05-20T11:08:40.087Z,3.23
2023-05-20T11:11:08.387Z,2.60
2023-05-20T11:13:36.422Z,3.10
2023-05-20T11:16:05.156Z,2.63
2023-05-20T11:18:33.646Z,1.43
2023-05-20T11:21:03.539Z,2.93
2023-05-20T11:23:31.863Z,3.07
2023-05-20T11:26:00.381Z,4.17
2023-05-20T11:28:28.382Z,2.33
2023-05-20T11:30:56.851Z,3.27
2023-05-20T11:33:26.875Z,3.43
2023-05-20T11:35:55.002Z,1.60
2023-05-20T11:38:24.403Z,3.93
2023-05-20T11:40:54.400Z,1.60
2023-05-20T11:43:23.371Z,1.80
2023-05-20T11:45:54.329Z,2.53
2023-05-20T11:48:22.217Z,3.60
2023-05-20T11:50:50.064Z,4.50
2023-05-20T11:53:19.039Z,2.20
2023-05-20T11:55:49.793Z,2.27
2023-05-20T11:58:18.263Z,2.30
2023-05-20T12:00:52.854Z,4.10
2023-05-20T12:03:23.056Z,2.20
2023-05-20T12:05:51.334Z,3.10
2023-05-20T12:08:19.352Z,1.97
2023-05-20T12:10:48.832Z,5.53
2023-05-20T12:13:16.851Z,4.93
2023-05-20T12:15:44.829Z,5.13
2023-05-20T12:18:12.930Z,2.53
2023-05-20T12:20:41.440Z,2.93
2023-05-20T12:23:09.383Z,2.50
2023-05-20T12:25:37.205Z,2.43
2023-05-20T12:28:07.618Z,5.40
2023-05-20T12:30:35.854Z,4.10
2023-05-20T12:33:04.809Z,1.70
2023-05-20T12:35:38.551Z,1.83
2023-05-20T12:38:06.906Z,3.33
2023-05-20T12:40:35.222Z,2.07
2023-05-20T12:43:04.390Z,4.20
2023-05-20T12:45:33.901Z,3.33
2023-05-20T12:48:01.775Z,2.87
2023-05-20T12:50:30.155Z,2.63
2023-05-20T12:52:58.125Z,2.93
2023-05-20T12:55:26.133Z,5.57
2023-05-20T12:57:55.428Z,6.77
2023-05-20T13:00:23.873Z,5.00
2023-05-20T13:02:53.502Z,4.40
2023-05-20T13:05:21.680Z,4.87
2023-05-20T13:07:50.511Z,6.10
2023-05-20T13:10:18.443Z,3.20
2023-05-20T13:12:47.342Z,2.10
2023-05-20T13:15:16.213Z,3.53
2023-05-20T13:17:44.424Z,3.13
2023-05-20T13:20:14.599Z,5.60
2023-05-20T13:22:43.066Z,3.20
2023-05-20T13:25:11.315Z,5.70
2023-05-20T13:27:39.842Z,3.47
2023-05-20T13:30:09.372Z,2.43
2023-05-20T13:32:38.005Z,6.87
2023-05-20T13:35:07.075Z,4.20
2023-05-20T13:37:36.552Z,4.50
2023-05-20T13:40:04.763Z,3.20
2023-05-20T13:42:33.289Z,2.53
2023-05-20T13:45:01.589Z,1.70
2023-05-20T13:47:30.055Z,2.53
2023-05-20T13:49:58.324Z,2.57
2023-05-20T13:52:27.160Z,2.50
2023-05-20T13:54:56.449Z,2.20
2023-05-20T13:57:24.627Z,3.03
2023-05-20T13:59:52.774Z,2.50
2023-05-20T14:02:20.846Z,7.87
2023-05-20T14:04:49.013Z,3.60
2023-05-20T14:07:17.064Z,5.17
2023-05-20T14:09:45.430Z,7.17
2023-05-20T14:12:14.899Z,6.40
2023-05-20T14:14:42.999Z,7.23
2023-05-20T14:17:11.462Z,4.17
2023-05-20T14:19:39.442Z,4.00
2023-05-20T14:22:07.531Z,3.30
2023-05-20T14:24:35.549Z,5.80
2023-05-20T14:27:04.205Z,6.40
2023-05-20T14:29:34.170Z,2.50
2023-05-20T14:32:04.083Z,5.10
2023-05-20T14:34:32.196Z,3.63
2023-05-20T14:37:06.206Z,2.57
2023-05-20T14:39:34.257Z,2.30
2023-05-20T14:42:06.005Z,3.27
2023-05-20T14:44:40.006Z,2.57
2023-05-20T14:47:08.067Z,4.03
2023-05-20T14:49:37.293Z,9.40
2023-05-20T14:52:07.535Z,2.27
2023-05-20T14:54:35.663Z,1.70
2023-05-20T14:57:04.311Z,2.80
2023-05-20T14:59:32.118Z,7.10
2023-05-20T15:02:01.814Z,5.83
2023-05-20T15:04:29.876Z,4.03
2023-05-20T15:06:57.958Z,3.33
2023-05-20T15:09:26.096Z,3.40
2023-05-20T15:11:54.423Z,3.57
2023-05-20T15:14:22.428Z,3.60
2023-05-20T15:16:50.593Z,4.07
2023-05-20T15:19:19.941Z,3.50
2023-05-20T15:21:49.569Z,6.10
2023-05-20T15:24:17.906Z,7.33
2023-05-20T15:26:45.912Z,3.60
2023-05-20T15:29:14.415Z,2.87
2023-05-20T15:31:42.444Z,4.70
2023-05-20T15:34:10.528Z,3.60
2023-05-20T15:36:40.101Z,15.73
2023-05-20T15:39:08.596Z,25.57
2023-05-20T15:41:39.391Z,20.50
2023-05-20T15:44:08.966Z,16.83
2023-05-20T15:46:37.205Z,8.43
2023-05-20T15:49:05.633Z,10.90
2023-05-20T15:51:33.613Z,6.80
2023-05-20T15:54:03.567Z,7.60
2023-05-20T15:56:32.555Z,5.60
2023-05-20T15:59:00.319Z,11.13
2023-05-20T16:01:28.682Z,7.30
2023-05-20T16:03:58.151Z,7.63
2023-05-20T16:06:26.943Z,7.43
2023-05-20T16:08:54.864Z,4.93
2023-05-20T16:11:24.785Z,3.90
2023-05-20T16:13:52.665Z,4.50
2023-05-20T16:16:20.711Z,4.17
2023-05-20T16:18:48.856Z,4.57
2023-05-20T16:21:17.178Z,4.63
2023-05-20T16:23:45.152Z,3.50
2023-05-20T16:26:13.143Z,3.97
2023-05-20T16:28:43.181Z,5.07
2023-05-20T16:31:11.276Z,4.40
2023-05-20T16:33:39.319Z,6.47
2023-05-20T16:36:07.747Z,7.30
2023-05-20T16:38:35.752Z,3.20
2023-05-20T16:41:03.496Z,4.13
2023-05-20T16:43:31.664Z,3.80
2023-05-20T16:46:01.749Z,4.90
2023-05-20T16:48:29.765Z,6.63
2023-05-20T16:50:57.816Z,3.10
2023-05-20T16:53:25.877Z,4.27
2023-05-20T16:55:53.863Z,4.93
2023-05-20T16:58:21.685Z,3.80
2023-05-20T17:00:50.177Z,3.10
2023-05-20T17:03:20.785Z,3.00
2023-05-20T17:05:49.127Z,10.50
2023-05-20T17:08:18.180Z,3.73
2023-05-20T17:10:46.616Z,3.70
2023-05-20T17:13:14.678Z,5.30
2023-05-20T17:15:42.692Z,5.30
2023-05-20T17:18:11.723Z,14.93
2023-05-20T17:20:41.335Z,22.60
2023-05-20T17:23:09.324Z,19.13
2023-05-20T17:25:37.347Z,25.80
2023-05-20T17:28:05.617Z,26.13
2023-05-20T17:30:33.630Z,18.93
2023-05-20T17:33:01.920Z,17.10
2023-05-20T17:35:31.721Z,17.60
2023-05-20T17:38:01.170Z,18.20
2023-05-20T17:40:29.195Z,16.80
2023-05-20T17:42:57.140Z,18.73
2023-05-20T17:45:25.528Z,16.80
2023-05-20T17:47:53.633Z,14.20
2023-05-20T17:50:21.601Z,13.60
2023-05-20T17:52:49.643Z,9.93
2023-05-20T17:55:22.125Z,12.50
2023-05-20T17:57:50.156Z,8.10
2023-05-20T18:00:21.431Z,9.30
2023-05-20T18:02:49.574Z,8.33
2023-05-20T18:05:18.203Z,6.23
2023-05-20T18:07:46.381Z,13.40
2023-05-20T18:10:14.844Z,6.60
2023-05-20T18:12:45.337Z,21.03
2023-05-20T18:15:13.958Z,8.37
2023-05-20T18:17:41.868Z,5.80
2023-05-20T18:20:10.822Z,6.73
2023-05-20T18:22:40.225Z,6.60
2023-05-20T18:25:09.303Z,8.00
2023-05-20T18:27:37.767Z,9.33
2023-05-20T18:30:08.719Z,4.27
2023-05-20T18:32:36.813Z,4.03
2023-05-20T18:35:04.848Z,10.17
2023-05-20T18:37:33.047Z,3.43
2023-05-20T18:40:01.077Z,3.83
2023-05-20T18:42:29.027Z,4.03
2023-05-20T18:44:56.966Z,5.70
2023-05-20T18:47:26.395Z,4.67
2023-05-20T18:49:55.753Z,3.70
2023-05-20T18:52:23.959Z,3.50
2023-05-20T18:54:52.058Z,6.47
2023-05-20T18:57:20.118Z,3.70
2023-05-20T18:59:48.572Z,5.60
2023-05-20T19:02:17.390Z,4.03
2023-05-20T19:04:47.098Z,4.10
2023-05-20T19:07:15.067Z,3.77
2023-05-20T19:09:43.107Z,4.77
2023-05-20T19:12:11.031Z,5.30
2023-05-20T19:14:39.653Z,9.80
2023-05-20T19:17:08.063Z,13.43
2023-05-20T19:19:36.203Z,8.53
2023-05-20T19:22:06.614Z,12.70
2023-05-20T19:24:34.832Z,17.50
2023-05-20T19:27:03.139Z,24.70
2023-05-20T19:29:31.331Z,14.13
2023-05-20T19:31:59.591Z,8.33
2023-05-20T19:34:27.622Z,7.73
2023-05-20T19:36:56.989Z,7.80
2023-05-20T19:39:26.865Z,6.53
2023-05-20T19:41:54.974Z,5.73
2023-05-20T19:44:24.058Z,5.23
2023-05-20T19:46:52.831Z,8.10
2023-05-20T19:49:20.867Z,6.20
2023-05-20T19:51:48.981Z,6.70
2023-05-20T19:54:16.907Z,5.57
2023-05-20T19:56:46.414Z,6.10
2023-05-20T19:59:14.447Z,6.07
2023-05-20T20:01:43.223Z,4.80
2023-05-20T20:04:13.027Z,6.30
2023-05-20T20:06:40.856Z,7.73
2023-05-20T20:09:09.060Z,4.90
2023-05-20T20:11:37.553Z,4.63
2023-05-20T20:14:07.018Z,3.60
2023-05-20T20:16:36.278Z,5.33
2023-05-20T20:19:04.900Z,4.60
2023-05-20T20:21:32.865Z,4.90
2023-05-20T20:24:01.472Z,9.90
2023-05-20T20:26:31.028Z,4.07
2023-05-20T20:28:59.071Z,4.43
2023-05-20T20:31:28.575Z,4.00
2023-05-20T20:33:56.802Z,4.00
2023-05-20T20:36:32.716Z,5.27
2023-05-20T20:39:05.485Z,4.27
2023-05-20T20:41:35.497Z,4.47
2023-05-20T20:44:04.611Z,6.10
2023-05-20T20:46:34.098Z,8.17
2023-05-20T20:49:02.080Z,4.20
2023-05-20T20:51:30.055Z,5.77
2023-05-20T20:53:58.168Z,7.47
2023-05-20T20:56:26.861Z,6.10
2023-05-20T20:58:57.211Z,8.60
2023-05-20T21:01:25.770Z,6.57
2023-05-20T21:03:55.345Z,4.90
2023-05-20T21:06:23.432Z,4.03
2023-05-20T21:08:53.136Z,4.77
2023-05-20T21:11:22.430Z,3.40
2023-05-20T21:13:50.381Z,8.73
2023-05-20T21:16:18.402Z,4.43
2023-05-20T21:18:46.561Z,6.07
2023-05-20T21:21:20.433Z,6.53
2023-05-20T21:23:49.474Z,3.53
2023-05-20T21:26:17.787Z,5.40
2023-05-20T21:28:45.704Z,3.60
2023-05-20T21:31:13.713Z,4.00
2023-05-20T21:33:41.719Z,4.37
2023-05-20T21:36:09.663Z,4.60
2023-05-20T21:38:39.177Z,4.17
2023-05-20T21:41:07.023Z,3.53
2023-05-20T21:43:36.243Z,7.50
2023-05-20T21:46:04.216Z,5.03
2023-05-20T21:48:32.455Z,9.80
2023-05-20T21:51:00.540Z,3.80
2023-05-20T21:53:28.626Z,4.23
2023-05-20T21:55:57.879Z,7.77
2023-05-20T21:58:26.070Z,3.70
2023-05-20T22:00:53.927Z,4.17
2023-05-20T22:03:22.592Z,3.70
2023-05-20T22:05:50.605Z,11.77
2023-05-20T22:08:18.987Z,3.43
2023-05-20T22:10:47.105Z,4.80
2023-05-20T22:13:17.270Z,4.73
2023-05-20T22:15:45.167Z,6.83
2023-05-20T22:18:14.883Z,5.17
2023-05-20T22:20:43.378Z,3.70
2023-05-20T22:23:11.793Z,7.70
2023-05-20T22:25:39.738Z,3.60
2023-05-20T22:28:08.363Z,3.67
2023-05-20T22:30:38.315Z,4.30
2023-05-20T22:33:06.615Z,4.00
2023-05-20T22:35:34.832Z,3.93
2023-05-20T22:38:02.869Z,3.90
2023-05-20T22:40:31.476Z,3.60
2023-05-20T22:42:59.452Z,5.23
2023-05-20T22:45:27.909Z,4.33
2023-05-20T22:47:57.248Z,3.03
2023-05-20T22:50:26.474Z,17.63
2023-05-20T22:52:54.877Z,2.90
2023-05-20T22:55:24.207Z,4.80
2023-05-20T22:57:52.505Z,4.73
2023-05-20T23:00:20.918Z,3.10
2023-05-20T23:02:49.932Z,4.83
2023-05-20T23:05:20.249Z,3.90
2023-05-20T23:07:48.200Z,2.87
2023-05-20T23:10:16.682Z,3.13
2023-05-20T23:12:44.642Z,3.57
2023-05-20T23:15:12.824Z,4.00
2023-05-20T23:17:40.689Z,3.83
2023-05-20T23:20:11.367Z,4.87
2023-05-20T23:22:40.645Z,2.90
2023-05-20T23:25:09.249Z,6.87
2023-05-20T23:27:37.153Z,4.80
2023-05-20T23:30:05.989Z,2.93
2023-05-20T23:32:34.023Z,2.87
2023-05-20T23:35:04.817Z,4.23
2023-05-20T23:37:34.300Z,4.57
2023-05-20T23:40:05.205Z,3.10
2023-05-20T23:42:33.079Z,3.53
2023-05-20T23:45:01.072Z,3.40
2023-05-20T23:47:29.977Z,2.97
2023-05-20T23:49:59.087Z,2.50
2023-05-20T23:52:27.096Z,3.83
2023-05-20T23:54:56.716Z,2.80
2023-05-20T23:57:25.900Z,3.17
2023-05-20T23:59:54.433Z,3.97
